createdAt,value
2018-05-17T00:00:35.020Z,15.40
2018-05-17T00:01:35.046Z,18.10
2018-05-17T00:02:35.070Z,16.10
2018-05-17T00:03:35.084Z,19.30
2018-05-17T00:04:35.098Z,15.50
2018-05-17T00:05:35.125Z,16.80
2018-05-17T00:06:35.150Z,17.00
2018-05-17T00:07:35.162Z,16.10
2018-05-17T00:08:35.191Z,16.10
2018-05-17T00:09:35.203Z,14.70
2018-05-17T00:10:35.228Z,16.80
2018-05-17T00:11:35.257Z,16.20
2018-05-17T00:12:35.269Z,17.00
2018-05-17T00:13:35.293Z,17.50
2018-05-17T00:14:35.320Z,21.10
2018-05-17T00:15:35.333Z,17.40
2018-05-17T00:16:35.363Z,19.40
2018-05-17T00:17:35.372Z,16.20
2018-05-17T00:18:35.401Z,16.10
2018-05-17T00:19:35.424Z,15.80
2018-05-17T00:20:35.444Z,18.20
2018-05-17T00:21:35.465Z,16.00
2018-05-17T00:22:35.483Z,14.90
2018-05-17T00:23:35.516Z,16.20
2018-05-17T00:24:35.529Z,16.40
2018-05-17T00:25:35.545Z,15.00
2018-05-17T00:26:35.572Z,17.70
2018-05-17T00:27:35.582Z,18.60
2018-05-17T00:28:35.611Z,17.50
2018-05-17T00:29:35.633Z,14.90
2018-05-17T00:30:35.648Z,14.60
2018-05-17T00:31:35.674Z,16.80
2018-05-17T00:32:35.688Z,15.60
2018-05-17T00:33:35.712Z,15.80
2018-05-17T00:34:35.739Z,15.80
2018-05-17T00:35:35.757Z,15.30
2018-05-17T00:36:35.778Z,15.40
2018-05-17T00:37:35.805Z,18.30
2018-05-17T00:38:35.822Z,17.00
2018-05-17T00:39:35.849Z,17.40
2018-05-17T00:40:35.858Z,15.70
2018-05-17T00:41:35.884Z,21.30
2018-05-17T00:42:35.897Z,16.10
2018-05-17T00:43:35.922Z,15.20
2018-05-17T00:44:35.949Z,17.20
2018-05-17T00:45:35.963Z,18.60
2018-05-17T00:46:35.994Z,18.20
2018-05-17T00:47:36.006Z,20.50
2018-05-17T00:48:36.028Z,16.80
2018-05-17T00:49:36.060Z,18.50
2018-05-17T00:50:36.067Z,19.10
2018-05-17T00:51:36.093Z,19.10
2018-05-17T00:52:36.108Z,17.20
2018-05-17T00:53:36.132Z,18.00
2018-05-17T00:54:36.158Z,18.00
2018-05-17T00:55:36.172Z,18.40
2018-05-17T00:56:36.199Z,16.00
2018-05-17T00:57:36.211Z,18.70
2018-05-17T00:58:36.237Z,18.80
2018-05-17T00:59:36.263Z,19.80
2018-05-17T01:00:36.288Z,19.80
2018-05-17T01:01:36.304Z,16.50
2018-05-17T01:02:36.316Z,18.30
2018-05-17T01:03:36.343Z,17.20
2018-05-17T01:04:36.368Z,19.20
2018-05-17T01:05:36.383Z,17.60
2018-05-17T01:06:36.410Z,17.60
2018-05-17T01:07:36.422Z,17.60
2018-05-17T01:08:36.446Z,17.00
2018-05-17T01:09:36.472Z,19.70
2018-05-17T01:10:36.486Z,17.20
2018-05-17T01:11:36.512Z,18.60
2018-05-17T01:12:36.527Z,16.90
2018-05-17T01:13:36.551Z,16.20
2018-05-17T01:14:36.565Z,17.60
2018-05-17T01:15:36.592Z,18.50
2018-05-17T01:16:36.616Z,18.80
2018-05-17T01:17:36.630Z,17.30
2018-05-17T01:18:36.655Z,25.00
2018-05-17T01:19:36.670Z,18.80
2018-05-17T01:20:36.699Z,17.90
2018-05-17T01:21:36.711Z,16.80
2018-05-17T01:22:36.738Z,18.20
2018-05-17T01:23:36.762Z,16.00
2018-05-17T01:24:36.778Z,20.10
2018-05-17T01:25:36.801Z,17.60
2018-05-17T01:26:36.815Z,20.00
2018-05-17T01:27:36.840Z,17.40
2018-05-17T01:28:36.866Z,17.80
2018-05-17T01:29:36.880Z,17.10
2018-05-17T01:30:36.906Z,20.20
2018-05-17T01:31:36.918Z,17.40
2018-05-17T01:32:36.944Z,20.60
2018-05-17T01:33:36.959Z,18.20
2018-05-17T01:34:36.986Z,19.00
2018-05-17T01:35:37.010Z,18.50
2018-05-17T01:36:37.023Z,18.00
2018-05-17T01:37:37.061Z,17.60
2018-05-17T01:38:37.065Z,19.90
2018-05-17T01:39:37.090Z,30.20
2018-05-17T01:40:37.106Z,17.30
2018-05-17T01:41:37.129Z,18.60
2018-05-17T01:42:37.154Z,20.60
2018-05-17T01:43:37.169Z,18.40
2018-05-17T01:44:37.194Z,18.70
2018-05-17T01:45:37.208Z,19.50
2018-05-17T01:46:37.233Z,18.80
2018-05-17T01:47:37.248Z,19.50
2018-05-17T01:48:37.276Z,16.10
2018-05-17T01:49:37.287Z,17.90
2018-05-17T01:50:37.312Z,18.80
2018-05-17T01:51:37.338Z,18.90
2018-05-17T01:52:37.352Z,18.90
2018-05-17T01:53:37.379Z,16.90
2018-05-17T01:54:37.390Z,15.80
2018-05-17T01:55:37.418Z,20.90
2018-05-17T01:56:37.431Z,17.30
2018-05-17T01:57:37.457Z,17.80
2018-05-17T01:58:37.483Z,19.80
2018-05-17T01:59:37.495Z,19.00
2018-05-17T02:00:37.822Z,17.50
2018-05-17T02:01:37.536Z,16.00
2018-05-17T02:02:37.565Z,19.00
2018-05-17T02:03:37.574Z,18.80
2018-05-17T02:04:37.600Z,19.30
2018-05-17T02:05:37.615Z,20.20
2018-05-17T02:06:37.640Z,16.60
2018-05-17T02:07:37.668Z,18.50
2018-05-17T02:08:37.679Z,19.60
2018-05-17T02:09:37.707Z,21.10
2018-05-17T02:10:37.719Z,25.60
2018-05-17T02:11:37.745Z,17.60
2018-05-17T02:12:37.788Z,22.20
2018-05-17T02:13:37.785Z,20.30
2018-05-17T02:14:37.798Z,22.10
2018-05-17T02:15:37.825Z,21.30
2018-05-17T02:16:37.838Z,20.80
2018-05-17T02:17:37.863Z,18.40
2018-05-17T02:18:37.889Z,19.10
2018-05-17T02:19:37.907Z,21.10
2018-05-17T02:20:37.929Z,23.00
2018-05-17T02:21:37.942Z,20.70
2018-05-17T02:22:37.967Z,21.70
2018-05-17T02:23:37.982Z,22.90
2018-05-17T02:24:38.008Z,24.30
2018-05-17T02:25:38.023Z,19.70
2018-05-17T02:26:38.047Z,23.70
2018-05-17T02:27:38.062Z,21.50
2018-05-17T02:28:38.088Z,24.00
2018-05-17T02:29:38.113Z,23.00
2018-05-17T02:30:38.125Z,26.10
2018-05-17T02:31:38.152Z,22.70
2018-05-17T02:32:38.171Z,23.20
2018-05-17T02:33:38.193Z,25.50
2018-05-17T02:34:38.205Z,27.30
2018-05-17T02:35:38.230Z,32.80
2018-05-17T02:36:38.245Z,26.60
2018-05-17T02:37:38.271Z,25.40
2018-05-17T02:38:38.285Z,24.40
2018-05-17T02:39:38.309Z,25.90
2018-05-17T02:40:38.323Z,24.00
2018-05-17T02:41:38.349Z,25.80
2018-05-17T02:42:38.363Z,26.20
2018-05-17T02:43:38.403Z,25.30
2018-05-17T02:44:38.403Z,27.60
2018-05-17T02:45:38.430Z,30.90
2018-05-17T02:46:38.455Z,26.70
2018-05-17T02:47:38.471Z,27.50
2018-05-17T02:48:38.493Z,26.70
2018-05-17T02:49:38.508Z,24.90
2018-05-17T02:50:38.533Z,25.40
2018-05-17T02:51:38.553Z,24.40
2018-05-17T02:52:38.573Z,26.70
2018-05-17T02:53:38.586Z,25.70
2018-05-17T02:54:38.618Z,27.70
2018-05-17T02:55:38.625Z,25.80
2018-05-17T02:56:38.656Z,25.20
2018-05-17T02:57:38.665Z,25.70
2018-05-17T02:58:38.691Z,24.90
2018-05-17T02:59:38.704Z,25.40
2018-05-17T03:00:38.730Z,22.50
2018-05-17T03:01:38.744Z,25.90
2018-05-17T03:02:38.770Z,27.70
2018-05-17T03:03:38.787Z,30.30
2018-05-17T03:04:38.809Z,26.70
2018-05-17T03:05:38.824Z,27.70
2018-05-17T03:06:38.850Z,26.50
2018-05-17T03:07:38.862Z,29.00
2018-05-17T03:08:38.921Z,30.30
2018-05-17T03:09:38.902Z,27.20
2018-05-17T03:10:38.927Z,25.90
2018-05-17T03:11:38.955Z,27.90
2018-05-17T03:12:38.980Z,27.50
2018-05-17T03:13:38.992Z,27.70
2018-05-17T03:14:39.008Z,26.00
2018-05-17T03:15:39.032Z,27.20
2018-05-17T03:16:39.111Z,30.00
2018-05-17T03:17:39.070Z,26.70
2018-05-17T03:18:39.085Z,31.30
2018-05-17T03:19:39.110Z,28.80
2018-05-17T03:20:39.127Z,26.70
2018-05-17T03:21:39.152Z,33.00
2018-05-17T03:22:39.163Z,34.20
2018-05-17T03:23:39.189Z,27.40
2018-05-17T03:24:39.202Z,30.20
2018-05-17T03:25:39.228Z,28.80
2018-05-17T03:26:39.242Z,28.20
2018-05-17T03:27:39.269Z,26.90
2018-05-17T03:28:39.281Z,27.90
2018-05-17T03:29:39.307Z,27.50
2018-05-17T03:30:39.322Z,29.10
2018-05-17T03:31:39.348Z,28.50
2018-05-17T03:32:39.361Z,27.70
2018-05-17T03:33:39.390Z,27.10
2018-05-17T03:34:39.411Z,29.80
2018-05-17T03:35:39.425Z,30.70
2018-05-17T03:36:39.439Z,31.00
2018-05-17T03:37:39.465Z,28.50
2018-05-17T03:38:39.480Z,27.50
2018-05-17T03:39:39.505Z,31.20
2018-05-17T03:40:39.517Z,28.00
2018-05-17T03:41:39.557Z,31.50
2018-05-17T03:42:39.559Z,31.30
2018-05-17T03:43:39.585Z,29.40
2018-05-17T03:44:39.597Z,35.90
2018-05-17T03:45:39.623Z,32.40
2018-05-17T03:46:39.637Z,31.10
2018-05-17T03:47:39.664Z,30.20
2018-05-17T03:48:39.688Z,30.40
2018-05-17T03:49:39.702Z,33.40
2018-05-17T03:50:39.715Z,33.60
2018-05-17T03:51:39.742Z,30.70
2018-05-17T03:52:39.754Z,30.50
2018-05-17T03:53:39.781Z,29.90
2018-05-17T03:54:39.795Z,30.90
2018-05-17T03:55:39.821Z,30.90
2018-05-17T03:56:39.850Z,30.30
2018-05-17T03:57:39.860Z,30.90
2018-05-17T03:58:39.874Z,32.10
2018-05-17T03:59:39.900Z,30.40
2018-05-17T04:00:39.912Z,32.20
2018-05-17T04:01:39.942Z,28.10
2018-05-17T04:02:39.953Z,28.20
2018-05-17T04:03:39.978Z,32.30
2018-05-17T04:04:39.991Z,31.20
2018-05-17T04:05:40.017Z,29.80
2018-05-17T04:06:40.032Z,29.30
2018-05-17T04:07:40.058Z,30.60
2018-05-17T04:08:40.147Z,28.10
2018-05-17T04:09:40.096Z,29.80
2018-05-17T04:10:40.112Z,31.80
2018-05-17T04:11:40.137Z,30.20
2018-05-17T04:12:40.151Z,30.40
2018-05-17T04:13:40.175Z,32.70
2018-05-17T04:14:40.196Z,29.90
2018-05-17T04:15:40.215Z,29.70
2018-05-17T04:16:40.228Z,27.90
2018-05-17T04:17:40.267Z,27.10
2018-05-17T04:18:40.272Z,30.60
2018-05-17T04:19:40.294Z,27.30
2018-05-17T04:20:40.306Z,27.10
2018-05-17T04:21:40.332Z,31.90
2018-05-17T04:22:40.347Z,31.10
2018-05-17T04:23:40.372Z,27.40
2018-05-17T04:24:40.386Z,29.70
2018-05-17T04:25:40.412Z,27.00
2018-05-17T04:26:40.425Z,27.30
2018-05-17T04:27:40.452Z,28.80
2018-05-17T04:28:40.465Z,26.00
2018-05-17T04:29:40.490Z,28.20
2018-05-17T04:30:40.504Z,26.90
2018-05-17T04:31:40.533Z,27.40
2018-05-17T04:32:40.544Z,24.20
2018-05-17T04:33:40.569Z,26.30
2018-05-17T04:34:40.583Z,26.00
2018-05-17T04:35:40.609Z,24.90
2018-05-17T04:36:40.622Z,26.30
2018-05-17T04:37:40.649Z,22.40
2018-05-17T04:38:40.662Z,26.20
2018-05-17T04:39:40.688Z,24.80
2018-05-17T04:40:40.702Z,22.30
2018-05-17T04:41:40.726Z,24.10
2018-05-17T04:42:40.742Z,24.10
2018-05-17T04:43:40.767Z,24.20
2018-05-17T04:44:40.784Z,21.30
2018-05-17T04:45:40.805Z,24.50
2018-05-17T04:46:40.820Z,25.40
2018-05-17T04:47:40.846Z,23.30
2018-05-17T04:48:40.859Z,22.10
2018-05-17T04:49:40.886Z,23.50
2018-05-17T04:50:40.898Z,26.30
2018-05-17T04:51:40.932Z,20.70
2018-05-17T04:52:40.938Z,21.50
2018-05-17T04:53:40.967Z,20.30
2018-05-17T04:54:41.062Z,25.40
2018-05-17T04:55:41.004Z,23.00
2018-05-17T04:56:41.017Z,20.10
2018-05-17T04:57:41.044Z,20.50
2018-05-17T04:58:41.068Z,20.90
2018-05-17T04:59:41.083Z,23.10
2018-05-17T05:00:41.108Z,20.30
2018-05-17T05:01:41.122Z,21.00
2018-05-17T05:02:41.197Z,19.30
2018-05-17T05:03:41.163Z,20.60
2018-05-17T05:04:41.187Z,21.90
2018-05-17T05:05:41.200Z,18.90
2018-05-17T05:06:41.226Z,21.50
2018-05-17T05:07:41.257Z,17.80
2018-05-17T05:08:41.271Z,22.60
2018-05-17T05:09:41.293Z,24.60
2018-05-17T05:10:41.305Z,22.30
2018-05-17T05:11:41.333Z,21.30
2018-05-17T05:12:41.345Z,19.70
2018-05-17T05:13:41.373Z,23.70
2018-05-17T05:14:41.397Z,17.90
2018-05-17T05:15:41.411Z,21.00
2018-05-17T05:16:41.435Z,19.40
2018-05-17T05:17:41.454Z,18.40
2018-05-17T05:18:41.479Z,22.50
2018-05-17T05:19:41.489Z,19.50
2018-05-17T05:20:41.516Z,19.50
2018-05-17T05:21:41.540Z,20.10
2018-05-17T05:22:41.555Z,18.50
2018-05-17T05:23:41.581Z,18.40
2018-05-17T05:24:41.594Z,19.50
2018-05-17T05:25:41.619Z,18.30
2018-05-17T05:26:41.645Z,17.80
2018-05-17T05:27:41.674Z,17.10
2018-05-17T05:28:41.685Z,18.30
2018-05-17T05:29:41.711Z,21.10
2018-05-17T05:30:41.724Z,18.80
2018-05-17T05:31:41.821Z,20.50
2018-05-17T05:32:41.764Z,15.00
2018-05-17T05:33:41.790Z,18.80
2018-05-17T05:34:41.816Z,18.60
2018-05-17T05:35:41.828Z,17.40
2018-05-17T05:36:41.856Z,18.50
2018-05-17T05:37:41.881Z,17.00
2018-05-17T05:38:41.901Z,16.40
2018-05-17T05:39:41.921Z,17.60
2018-05-17T05:40:41.936Z,16.00
2018-05-17T05:41:41.960Z,17.80
2018-05-17T05:42:41.998Z,20.80
2018-05-17T05:43:42.001Z,18.60
2018-05-17T05:44:42.026Z,16.40
2018-05-17T05:45:42.052Z,16.20
2018-05-17T05:46:42.066Z,19.70
2018-05-17T05:47:42.092Z,17.20
2018-05-17T05:48:42.116Z,15.40
2018-05-17T05:49:42.131Z,15.60
2018-05-17T05:50:42.157Z,18.50
2018-05-17T05:51:42.184Z,19.50
2018-05-17T05:52:42.196Z,19.70
2018-05-17T05:53:42.221Z,16.80
2018-05-17T05:54:42.247Z,14.60
2018-05-17T05:55:42.262Z,15.80
2018-05-17T05:56:42.287Z,14.90
2018-05-17T05:57:42.301Z,16.70
2018-05-17T05:58:42.326Z,20.40
2018-05-17T05:59:42.352Z,18.90
2018-05-17T06:00:42.369Z,17.40
2018-05-17T06:01:42.392Z,16.50
2018-05-17T06:02:42.419Z,14.60
2018-05-17T06:03:42.444Z,18.50
2018-05-17T06:04:42.457Z,16.70
2018-05-17T06:05:42.483Z,18.20
2018-05-17T06:06:42.498Z,17.60
2018-05-17T06:07:42.524Z,17.80
2018-05-17T06:08:42.549Z,16.10
2018-05-17T06:09:42.583Z,19.60
2018-05-17T06:10:42.589Z,16.00
2018-05-17T06:11:42.614Z,17.30
2018-05-17T06:12:42.627Z,16.60
2018-05-17T06:13:42.659Z,17.40
2018-05-17T06:14:42.680Z,18.40
2018-05-17T06:15:42.706Z,16.40
2018-05-17T06:16:42.718Z,18.10
2018-05-17T06:17:42.745Z,18.40
2018-05-17T06:18:42.774Z,16.30
2018-05-17T06:19:42.785Z,17.00
2018-05-17T06:20:42.810Z,15.50
2018-05-17T06:21:42.837Z,13.40
2018-05-17T06:22:42.862Z,14.20
2018-05-17T06:23:42.930Z,16.30
2018-05-17T06:24:42.902Z,13.60
2018-05-17T06:25:42.930Z,14.00
2018-05-17T06:26:42.954Z,13.40
2018-05-17T06:27:42.967Z,18.40
2018-05-17T06:28:42.999Z,15.60
2018-05-17T06:29:43.020Z,14.30
2018-05-17T06:30:43.048Z,13.40
2018-05-17T06:31:43.075Z,18.00
2018-05-17T06:32:43.097Z,14.30
2018-05-17T06:33:43.110Z,16.60
2018-05-17T06:34:43.135Z,15.40
2018-05-17T06:35:43.162Z,15.60
2018-05-17T06:36:43.189Z,13.50
2018-05-17T06:37:43.268Z,14.90
2018-05-17T06:38:43.252Z,16.20
2018-05-17T06:39:43.266Z,14.60
2018-05-17T06:40:43.311Z,13.60
2018-05-17T06:41:43.318Z,13.00
2018-05-17T06:42:43.344Z,12.60
2018-05-17T06:43:43.369Z,18.70
2018-05-17T06:44:43.409Z,16.30
2018-05-17T06:45:43.421Z,15.20
2018-05-17T06:46:43.448Z,16.00
2018-05-17T06:47:43.477Z,15.00
2018-05-17T06:48:43.500Z,13.70
2018-05-17T06:49:43.525Z,15.10
2018-05-17T06:50:43.564Z,14.70
2018-05-17T06:51:43.590Z,13.20
2018-05-17T06:52:43.617Z,13.40
2018-05-17T06:53:43.642Z,12.90
2018-05-17T06:54:43.668Z,15.90
2018-05-17T06:55:43.693Z,14.50
2018-05-17T06:56:43.720Z,16.00
2018-05-17T06:57:43.747Z,16.10
2018-05-17T06:58:43.784Z,14.00
2018-05-17T06:59:43.810Z,13.70
2018-05-17T07:00:43.837Z,15.80
2018-05-17T07:01:43.862Z,14.10
2018-05-17T07:02:43.887Z,14.10
2018-05-17T07:03:43.913Z,15.20
2018-05-17T07:04:43.940Z,13.60
2018-05-17T07:05:43.980Z,14.30
2018-05-17T07:06:44.004Z,13.50
2018-05-17T07:07:44.031Z,14.90
2018-05-17T07:08:44.056Z,12.50
2018-05-17T07:09:44.088Z,16.40
2018-05-17T07:10:44.120Z,15.90
2018-05-17T07:11:44.146Z,13.50
2018-05-17T07:12:44.173Z,14.50
2018-05-17T07:13:44.198Z,17.10
2018-05-17T07:14:44.226Z,15.70
2018-05-17T07:15:44.264Z,17.00
2018-05-17T07:16:44.289Z,17.00
2018-05-17T07:17:44.316Z,13.20
2018-05-17T07:18:44.604Z,18.50
2018-05-17T07:19:44.379Z,15.30
2018-05-17T07:20:44.417Z,12.00
2018-05-17T07:21:44.433Z,14.50
2018-05-17T07:22:44.471Z,13.60
2018-05-17T07:23:44.496Z,13.50
2018-05-17T07:24:44.522Z,13.10
2018-05-17T07:25:44.548Z,12.50
2018-05-17T07:26:44.586Z,10.00
2018-05-17T07:27:44.615Z,14.20
2018-05-17T07:28:44.646Z,12.60
2018-05-17T07:29:44.679Z,13.30
2018-05-17T07:30:44.702Z,11.30
2018-05-17T07:31:44.741Z,13.80
2018-05-17T07:32:44.766Z,11.00
2018-05-17T07:33:44.794Z,14.90
2018-05-17T07:34:44.833Z,13.20
2018-05-17T07:35:44.857Z,11.00
2018-05-17T07:36:44.884Z,11.90
2018-05-17T07:37:44.922Z,16.30
2018-05-17T07:38:44.948Z,12.20
2018-05-17T07:39:44.987Z,14.80
2018-05-17T07:40:45.013Z,12.70
2018-05-17T07:41:45.040Z,13.40
2018-05-17T07:42:45.076Z,10.60
2018-05-17T07:43:45.103Z,13.60
2018-05-17T07:44:45.142Z,10.00
2018-05-17T07:45:45.169Z,11.00
2018-05-17T07:46:45.252Z,15.00
2018-05-17T07:47:45.231Z,13.10
2018-05-17T07:48:45.257Z,15.10
2018-05-17T07:49:45.297Z,13.80
2018-05-17T07:50:45.322Z,14.50
2018-05-17T07:51:45.361Z,13.70
2018-05-17T07:52:45.390Z,12.20
2018-05-17T07:53:45.412Z,13.10
2018-05-17T07:54:45.452Z,12.50
2018-05-17T07:55:45.484Z,11.50
2018-05-17T07:56:45.515Z,13.60
2018-05-17T07:57:45.541Z,12.00
2018-05-17T07:58:45.568Z,13.30
2018-05-17T07:59:45.606Z,15.40
2018-05-17T08:00:45.632Z,13.30
2018-05-17T08:01:45.701Z,12.80
2018-05-17T08:02:45.706Z,13.10
2018-05-17T08:03:45.735Z,15.80
2018-05-17T08:04:45.762Z,15.80
2018-05-17T08:05:45.786Z,14.60
2018-05-17T08:06:45.826Z,10.40
2018-05-17T08:07:45.851Z,14.20
2018-05-17T08:08:45.877Z,13.40
2018-05-17T08:09:45.916Z,16.20
2018-05-17T08:10:45.941Z,13.00
2018-05-17T08:11:45.981Z,12.80
2018-05-17T08:12:46.006Z,15.90
2018-05-17T08:13:46.032Z,11.60
2018-05-17T08:14:46.070Z,10.30
2018-05-17T08:15:46.098Z,11.00
2018-05-17T08:16:46.136Z,11.90
2018-05-17T08:17:46.174Z,12.50
2018-05-17T08:18:46.200Z,13.60
2018-05-17T08:19:46.226Z,15.80
2018-05-17T08:20:46.264Z,14.50
2018-05-17T08:21:46.289Z,13.70
2018-05-17T08:22:46.328Z,13.50
2018-05-17T08:23:46.359Z,11.70
2018-05-17T08:24:46.392Z,12.10
2018-05-17T08:25:46.421Z,11.30
2018-05-17T08:26:46.458Z,14.60
2018-05-17T08:27:46.485Z,14.00
2018-05-17T08:28:46.521Z,12.20
2018-05-17T08:29:46.547Z,13.60
2018-05-17T08:30:46.573Z,12.90
2018-05-17T08:31:46.612Z,12.00
2018-05-17T08:32:46.639Z,14.10
2018-05-17T08:33:46.677Z,11.60
2018-05-17T08:34:46.703Z,15.20
2018-05-17T08:35:46.729Z,12.80
2018-05-17T08:36:46.773Z,10.60
2018-05-17T08:37:46.794Z,13.60
2018-05-17T08:38:46.819Z,18.50
2018-05-17T08:39:46.857Z,15.70
2018-05-17T08:40:46.882Z,13.90
2018-05-17T08:41:46.922Z,14.20
2018-05-17T08:42:46.962Z,14.60
2018-05-17T08:43:46.975Z,17.40
2018-05-17T08:44:47.012Z,18.50
2018-05-17T08:45:47.053Z,15.00
2018-05-17T08:46:47.074Z,18.20
2018-05-17T08:47:47.103Z,15.80
2018-05-17T08:48:47.128Z,15.30
2018-05-17T08:49:47.155Z,16.50
2018-05-17T08:50:47.191Z,14.50
2018-05-17T08:52:47.244Z,16.00
2018-05-17T08:53:47.284Z,17.00
2018-05-17T08:54:47.310Z,17.70
2018-05-17T08:55:47.335Z,17.60
2018-05-17T08:56:47.374Z,21.50
2018-05-17T08:57:47.400Z,16.70
2018-05-17T08:58:47.439Z,19.90
2018-05-17T08:59:47.556Z,18.40
2018-05-17T09:00:47.502Z,17.40
2018-05-17T09:01:47.529Z,16.50
2018-05-17T09:02:47.554Z,15.80
2018-05-17T09:03:47.594Z,19.70
2018-05-17T09:04:47.619Z,16.90
2018-05-17T09:05:47.647Z,18.80
2018-05-17T09:06:47.697Z,13.90
2018-05-17T09:07:47.712Z,20.10
2018-05-17T09:08:47.748Z,17.70
2018-05-17T09:09:47.779Z,20.20
2018-05-17T09:10:47.804Z,15.20
2018-05-17T09:11:47.848Z,19.10
2018-05-17T09:12:47.864Z,17.60
2018-05-17T09:13:47.914Z,14.60
2018-05-17T09:14:47.929Z,15.30
2018-05-17T09:15:47.967Z,16.10
2018-05-17T09:16:47.993Z,17.80
2018-05-17T09:17:48.019Z,14.90
2018-05-17T09:18:48.057Z,19.70
2018-05-17T09:19:48.084Z,19.30
2018-05-17T09:20:48.123Z,18.70
2018-05-17T09:21:48.147Z,19.90
2018-05-17T09:22:48.188Z,18.10
2018-05-17T09:23:48.214Z,16.90
2018-05-17T09:24:48.245Z,20.20
2018-05-17T09:25:48.276Z,19.80
2018-05-17T09:26:48.303Z,25.30
2018-05-17T09:27:48.342Z,21.00
2018-05-17T09:28:48.368Z,20.40
2018-05-17T09:29:48.394Z,14.30
2018-05-17T09:30:48.482Z,21.80
2018-05-17T09:31:48.464Z,15.80
2018-05-17T09:32:48.483Z,20.00
2018-05-17T09:33:48.510Z,19.90
2018-05-17T09:34:48.552Z,16.20
2018-05-17T09:35:48.593Z,16.10
2018-05-17T09:36:48.602Z,18.10
2018-05-17T09:37:48.628Z,18.30
2018-05-17T09:38:48.665Z,16.70
2018-05-17T09:39:48.689Z,15.40
2018-05-17T09:40:48.717Z,15.20
2018-05-17T09:41:48.755Z,17.90
2018-05-17T09:42:48.784Z,13.30
2018-05-17T09:43:48.818Z,17.70
2018-05-17T09:44:48.844Z,18.00
2018-05-17T09:45:48.871Z,13.40
2018-05-17T09:46:48.910Z,14.60
2018-05-17T09:47:48.936Z,17.00
2018-05-17T09:48:48.973Z,19.50
2018-05-17T09:49:48.999Z,14.50
2018-05-17T09:50:49.039Z,24.20
2018-05-17T09:51:49.065Z,18.10
2018-05-17T09:52:49.104Z,17.50
2018-05-17T09:53:49.128Z,18.10
2018-05-17T09:54:49.166Z,14.80
2018-05-17T09:55:49.193Z,15.50
2018-05-17T09:56:49.230Z,19.60
2018-05-17T09:57:49.257Z,15.90
2018-05-17T09:58:49.296Z,16.20
2018-05-17T09:59:49.323Z,20.00
2018-05-17T10:00:49.361Z,15.00
2018-05-17T10:01:49.389Z,16.40
2018-05-17T10:02:49.424Z,17.20
2018-05-17T10:03:49.451Z,18.20
2018-05-17T10:04:49.482Z,16.20
2018-05-17T10:05:49.516Z,15.30
2018-05-17T10:06:49.540Z,14.60
2018-05-17T10:07:49.585Z,15.40
2018-05-17T10:08:49.609Z,21.20
2018-05-17T10:09:49.643Z,22.00
2018-05-17T10:10:49.682Z,19.00
2018-05-17T10:11:49.709Z,15.70
2018-05-17T10:12:49.735Z,15.70
2018-05-17T10:13:49.771Z,17.50
2018-05-17T10:14:49.799Z,21.30
2018-05-17T10:15:49.837Z,14.80
2018-05-17T10:16:49.871Z,16.80
2018-05-17T10:17:49.900Z,14.90
2018-05-17T10:18:49.928Z,13.30
2018-05-17T10:19:49.966Z,17.20
2018-05-17T10:20:50.003Z,18.60
2018-05-17T10:21:50.059Z,16.60
2018-05-17T10:22:50.069Z,18.70
2018-05-17T10:23:50.111Z,18.50
2018-05-17T10:24:50.133Z,17.80
2018-05-17T10:25:50.172Z,16.30
2018-05-17T10:26:50.210Z,16.30
2018-05-17T10:27:50.236Z,22.40
2018-05-17T10:28:50.276Z,19.40
2018-05-17T10:29:50.312Z,16.20
2018-05-17T10:30:50.340Z,19.70
2018-05-17T10:31:50.376Z,17.00
2018-05-17T10:32:50.416Z,16.50
2018-05-17T10:33:50.442Z,17.90
2018-05-17T10:34:50.481Z,20.70
2018-05-17T10:35:50.518Z,19.30
2018-05-17T10:36:50.557Z,16.30
2018-05-17T10:37:50.584Z,19.60
2018-05-17T10:38:50.621Z,15.90
2018-05-17T10:39:50.661Z,16.90
2018-05-17T10:40:50.698Z,18.30
2018-05-17T10:41:50.725Z,16.20
2018-05-17T10:42:50.764Z,15.20
2018-05-17T10:43:50.803Z,17.80
2018-05-17T10:44:50.841Z,19.00
2018-05-17T10:45:50.878Z,18.20
2018-05-17T10:46:50.917Z,18.10
2018-05-17T10:47:50.954Z,18.10
2018-05-17T10:48:50.988Z,16.20
2018-05-17T10:49:51.020Z,18.30
2018-05-17T10:50:51.058Z,17.80
2018-05-17T10:51:51.097Z,19.70
2018-05-17T10:52:51.147Z,20.60
2018-05-17T10:53:51.165Z,23.70
2018-05-17T10:54:51.200Z,18.90
2018-05-17T10:55:51.239Z,16.50
2018-05-17T10:56:51.277Z,17.00
2018-05-17T10:57:51.302Z,21.30
2018-05-17T10:58:51.341Z,21.20
2018-05-17T10:59:51.380Z,23.00
2018-05-17T11:00:51.431Z,21.40
2018-05-17T11:01:51.443Z,20.10
2018-05-17T11:02:51.482Z,21.10
2018-05-17T11:03:51.520Z,19.10
2018-05-17T11:04:51.560Z,23.40
2018-05-17T11:05:51.586Z,18.40
2018-05-17T11:06:51.636Z,15.70
2018-05-17T11:07:51.663Z,22.50
2018-05-17T11:08:51.701Z,20.80
2018-05-17T11:09:51.726Z,23.90
2018-05-17T11:10:51.766Z,19.90
2018-05-17T11:11:51.803Z,19.40
2018-05-17T11:12:51.843Z,21.90
2018-05-17T11:13:51.894Z,17.20
2018-05-17T11:14:51.906Z,21.40
2018-05-17T11:15:51.945Z,25.70
2018-05-17T11:16:51.986Z,21.90
2018-05-17T11:17:52.022Z,19.70
2018-05-17T11:18:52.048Z,18.90
2018-05-17T11:19:52.089Z,19.90
2018-05-17T11:20:52.126Z,22.80
2018-05-17T11:21:52.166Z,18.30
2018-05-17T11:22:52.204Z,18.90
2018-05-17T11:23:52.240Z,18.00
2018-05-17T11:24:52.267Z,20.20
2018-05-17T11:25:52.316Z,17.20
2018-05-17T11:26:52.342Z,19.30
2018-05-17T11:27:52.382Z,15.20
2018-05-17T11:28:52.421Z,22.20
2018-05-17T11:29:52.460Z,18.10
2018-05-17T11:30:52.510Z,17.20
2018-05-17T11:31:52.535Z,17.20
2018-05-17T11:32:52.563Z,19.80
2018-05-17T11:33:52.602Z,15.60
2018-05-17T11:34:52.639Z,18.90
2018-05-17T11:35:52.697Z,16.40
2018-05-17T11:36:52.917Z,19.50
2018-05-17T11:37:52.753Z,19.60
2018-05-17T11:38:52.792Z,19.20
2018-05-17T11:40:52.869Z,22.70
2018-05-17T11:41:52.908Z,20.50
2018-05-17T11:42:52.947Z,19.30
2018-05-17T11:43:53.175Z,18.90
2018-05-17T11:44:53.011Z,20.80
2018-05-17T11:45:53.049Z,14.50
2018-05-17T11:46:53.087Z,15.90
2018-05-17T11:47:53.678Z,17.70
2018-05-17T11:48:53.164Z,16.20
2018-05-17T11:49:53.204Z,16.20
2018-05-17T11:50:53.431Z,16.10
2018-05-17T11:51:53.267Z,21.70
2018-05-17T11:52:53.305Z,15.10
2018-05-17T11:54:53.386Z,16.40
2018-05-17T11:55:53.421Z,18.20
2018-05-17T11:56:53.460Z,18.70
2018-05-17T11:57:53.498Z,18.70
2018-05-17T11:58:53.528Z,17.80
2018-05-17T11:59:53.566Z,20.40
2018-05-17T12:00:53.601Z,17.10
2018-05-17T12:01:53.641Z,17.40
2018-05-17T12:02:53.677Z,16.10
2018-05-17T12:03:53.717Z,15.10
2018-05-17T12:04:53.754Z,14.20
2018-05-17T12:05:53.793Z,15.20
2018-05-17T12:06:53.841Z,16.30
2018-05-17T12:07:53.870Z,16.00
2018-05-17T12:08:53.897Z,16.60
2018-05-17T12:09:53.957Z,19.50
2018-05-17T12:10:53.975Z,16.10
2018-05-17T12:11:54.011Z,20.00
2018-05-17T12:12:54.054Z,17.30
2018-05-17T12:13:54.093Z,16.20
2018-05-17T12:14:54.330Z,21.10
2018-05-17T12:15:54.164Z,18.00
2018-05-17T12:16:54.191Z,16.40
2018-05-17T12:17:54.231Z,18.40
2018-05-17T12:18:54.472Z,15.40
2018-05-17T12:19:54.354Z,15.60
2018-05-17T12:20:54.345Z,19.80
2018-05-17T12:21:54.372Z,13.50
2018-05-17T12:22:54.439Z,17.80
2018-05-17T12:23:54.450Z,16.50
2018-05-17T12:24:54.487Z,17.70
2018-05-17T12:25:54.525Z,15.20
2018-05-17T12:26:54.564Z,20.40
2018-05-17T12:27:54.597Z,19.80
2018-05-17T12:28:54.828Z,19.40
2018-05-17T12:29:54.667Z,16.80
2018-05-17T12:30:54.717Z,16.10
2018-05-17T12:31:54.798Z,15.10
2018-05-17T12:32:54.769Z,17.10
2018-05-17T12:33:54.809Z,19.90
2018-05-17T12:34:54.849Z,18.30
2018-05-17T12:35:54.884Z,16.10
2018-05-17T12:36:54.910Z,15.10
2018-05-17T12:37:54.958Z,15.60
2018-05-17T12:38:54.987Z,15.70
2018-05-17T12:39:55.027Z,16.00
2018-05-17T12:40:55.055Z,14.20
2018-05-17T12:41:55.090Z,15.00
2018-05-17T12:42:55.160Z,16.80
2018-05-17T12:43:55.167Z,15.50
2018-05-17T12:44:55.195Z,14.30
2018-05-17T12:45:55.434Z,15.00
2018-05-17T12:46:55.269Z,18.00
2018-05-17T12:47:55.308Z,11.50
2018-05-17T12:48:55.346Z,24.20
2018-05-17T12:49:55.372Z,18.90
2018-05-17T12:50:55.500Z,18.60
2018-05-17T12:51:55.451Z,14.60
2018-05-17T12:52:55.489Z,15.30
2018-05-17T12:53:55.514Z,14.10
2018-05-17T12:55:55.592Z,14.30
2018-05-17T12:56:55.685Z,15.90